Langzhong, China
Current Conditions -  °F | °C
As of 5:00 PM on Wednesday 28 Jan 2015 (Local Time) from ZUUU Reporting Station
Haze Haze  
Wind Chill: 39°   Ceiling: Unl
Heat Index: 45°   Visibility: 3mi
Dew Point: 37°   Wind: 11mph
Humidity: 76%   Direction: 30°NNE
Pressure: 29.91"   Gusts: NA
Location:  31.58°N, 105.97°E
Report Text: ZUUU 280900Z 03005MPS 5000 BR FEW011 SCT026 07/03 Q1013 NOSIG
Loading
Personal Weather Stations






























Interactive Weather Map New forecast layout! Learn more

10-Day Weather Forecast

Advertisements
Track Severe Weather on mobile